Time;durP1;ratioP1;P1;durP2;ratioP2;P2;SDS_P1;SDS_P2;PMS_P1;PMS_P2;Temp;Humidity;BMP_temperature;BMP_pressure;BME280_temperature;BME280_humidity;BME280_pressure;Samples;Min_cycle;Max_cycle;Signal;HPM_P1;HPM_P2
2021/10/04 00:01:35;;;;;;;16.03;11.17;;;;;;;13.87;91.82;100463.50;5042424;28;20231;-75
2021/10/04 00:04:01;;;;;;;16.30;10.50;;;;;;;13.86;92.44;100465.28;5038442;28;20279;-74
2021/10/04 00:06:27;;;;;;;17.00;11.73;;;;;;;13.85;92.17;100466.16;5042616;28;20202;-75
2021/10/04 00:08:54;;;;;;;16.43;10.73;;;;;;;13.83;92.35;100468.00;5038228;28;20210;-75
2021/10/04 00:11:22;;;;;;;16.40;10.93;;;;;;;13.82;92.43;100469.78;5040107;28;20218;-74
2021/10/04 00:13:48;;;;;;;15.50;11.67;;;;;;;13.81;92.27;100481.16;5035555;28;20211;-74
2021/10/04 00:16:14;;;;;;;17.57;11.17;;;;;;;13.81;92.25;100488.19;5040013;28;20242;-75
2021/10/04 00:18:41;;;;;;;15.23;11.00;;;;;;;13.80;92.76;100491.72;5038236;28;20324;-75
2021/10/04 00:21:07;;;;;;;14.13;10.83;;;;;;;13.81;92.71;100490.81;5040359;28;20223;-74
2021/10/04 00:23:34;;;;;;;19.63;11.33;;;;;;;13.79;92.70;100484.75;5036813;28;20196;-74
2021/10/04 00:26:00;;;;;;;15.43;10.63;;;;;;;13.76;92.94;100480.50;5039507;28;20334;-74
2021/10/04 00:28:29;;;;;;;16.47;11.10;;;;;;;13.75;93.58;100484.03;5036974;28;20210;-75
2021/10/04 00:30:55;;;;;;;15.17;10.47;;;;;;;13.75;93.50;100478.78;5038468;28;20895;-73
2021/10/04 00:33:22;;;;;;;14.77;10.93;;;;;;;13.73;93.73;100478.00;5034177;28;20215;-73
2021/10/04 00:35:48;;;;;;;15.80;11.57;;;;;;;13.72;93.69;100476.31;5040531;28;20226;-73
2021/10/04 00:38:14;;;;;;;16.07;10.97;;;;;;;13.71;93.80;100477.22;5033081;28;20214;-75
2021/10/04 00:40:41;;;;;;;15.43;11.17;;;;;;;13.70;94.40;100480.78;5042308;28;20235;-75
2021/10/04 00:43:07;;;;;;;17.87;11.47;;;;;;;13.69;94.25;100484.31;5035978;28;20203;-74
2021/10/04 00:45:35;;;;;;;17.07;11.30;;;;;;;13.69;94.30;100484.31;5042196;28;20199;-76
2021/10/04 00:48:02;;;;;;;14.43;10.53;;;;;;;13.68;94.15;100479.13;5035925;28;20575;-73
2021/10/04 00:50:30;;;;;;;18.37;11.23;;;;;;;13.66;93.93;100487.03;5037801;28;20231;-74
2021/10/04 00:52:57;;;;;;;16.87;11.03;;;;;;;13.65;93.31;100493.22;5035444;28;20605;-73
2021/10/04 00:55:24;;;;;;;15.27;10.23;;;;;;;13.62;93.88;100496.78;5040508;28;20238;-74
2021/10/04 00:57:50;;;;;;;14.67;10.27;;;;;;;13.59;93.68;100496.91;5036144;28;20215;-74
2021/10/04 01:00:21;;;;;;;19.20;11.67;;;;;;;13.57;93.79;100495.28;5037379;28;20223;-74
2021/10/04 01:02:49;;;;;;;16.87;11.07;;;;;;;13.57;94.42;100496.13;5036324;28;20203;-74
2021/10/04 01:05:16;;;;;;;16.37;11.40;;;;;;;13.56;93.99;100488.31;5043089;28;20211;-75
2021/10/04 01:07:43;;;;;;;15.93;11.33;;;;;;;13.55;93.99;100495.34;5037338;28;20591;-74
2021/10/04 01:10:10;;;;;;;16.07;10.87;;;;;;;13.54;93.72;100488.38;5041119;28;20250;-75
2021/10/04 01:12:38;;;;;;;16.57;10.50;;;;;;;13.53;94.92;100494.56;5033723;28;20311;-76
2021/10/04 01:15:05;;;;;;;18.27;11.70;;;;;;;13.53;95.49;100497.19;5040763;28;20203;-75
2021/10/04 01:17:32;;;;;;;15.57;10.83;;;;;;;13.54;95.23;100492.78;5033021;28;20364;-75
2021/10/04 01:19:59;;;;;;;13.50;10.17;;;;;;;13.54;94.88;100495.41;5041285;28;20210;-74
2021/10/04 01:22:27;;;;;;;15.13;10.57;;;;;;;13.53;94.87;100498.94;5035287;28;20278;-74
2021/10/04 01:24:53;;;;;;;17.67;11.40;;;;;;;13.52;94.83;100507.72;5038009;28;20214;-75
2021/10/04 01:27:21;;;;;;;14.70;10.60;;;;;;;13.50;95.04;100506.94;5036529;28;20195;-73
2021/10/04 01:29:47;;;;;;;15.10;11.00;;;;;;;13.49;94.91;100511.31;5043281;28;20796;-74
2021/10/04 01:32:13;;;;;;;16.27;11.17;;;;;;;13.50;95.02;100514.78;5037529;28;20583;-75
2021/10/04 01:34:40;;;;;;;16.67;11.63;;;;;;;13.48;94.54;100506.97;5041193;28;20296;-75
2021/10/04 01:37:06;;;;;;;16.87;10.83;;;;;;;13.47;94.77;100520.13;5037091;28;20664;-74
2021/10/04 01:39:34;;;;;;;15.73;11.13;;;;;;;13.47;95.29;100520.13;5039902;28;20215;-75
2021/10/04 01:42:00;;;;;;;15.77;11.07;;;;;;;13.45;95.53;100520.19;5037045;28;20225;-74
2021/10/04 01:44:27;;;;;;;14.97;10.47;;;;;;;13.42;95.85;100523.81;5039880;28;20207;-75
2021/10/04 01:46:53;;;;;;;14.70;10.10;;;;;;;13.39;95.96;100529.16;5035741;28;20205;-75
2021/10/04 01:49:19;;;;;;;17.00;11.27;;;;;;;13.38;96.50;100532.66;5039031;28;20203;-74
2021/10/04 01:51:46;;;;;;;16.03;11.20;;;;;;;13.37;96.05;100530.13;5039254;28;20226;-74
2021/10/04 01:54:12;;;;;;;18.20;11.07;;;;;;;13.35;96.24;100531.94;5037642;28;20232;-75
2021/10/04 01:56:40;;;;;;;18.57;11.47;;;;;;;13.33;96.78;100532.03;5036531;28;20192;-75
2021/10/04 01:59:06;;;;;;;15.90;10.77;;;;;;;13.31;96.98;100533.81;5037462;28;20210;-75
2021/10/04 02:01:33;;;;;;;14.80;10.77;;;;;;;13.30;97.08;100536.47;5036938;28;20219;-74
2021/10/04 02:03:59;;;;;;;16.07;11.10;;;;;;;13.27;97.16;100545.31;5039472;28;20203;-74
2021/10/04 02:06:26;;;;;;;16.90;11.50;;;;;;;13.26;98.24;100544.47;5037108;28;20206;-76
2021/10/04 02:08:52;;;;;;;19.43;11.73;;;;;;;13.27;98.92;100547.94;5041344;28;20211;-73
2021/10/04 02:11:18;;;;;;;19.63;11.37;;;;;;;13.31;99.40;100546.91;5041417;28;20232;-76
2021/10/04 02:13:46;;;;;;;16.73;10.97;;;;;;;13.33;99.37;100539.88;5041377;28;20225;-73
2021/10/04 02:16:12;;;;;;;18.20;11.60;;;;;;;13.35;99.46;100547.66;5041066;28;20202;-75
2021/10/04 02:18:39;;;;;;;15.93;11.70;;;;;;;13.39;99.81;100557.97;5039645;28;20752;-76
2021/10/04 02:21:05;;;;;;;16.90;11.47;;;;;;;13.43;99.81;100558.69;5042400;28;20223;-74
2021/10/04 02:23:32;;;;;;;16.10;10.90;;;;;;;13.43;99.51;100563.94;5042285;28;20203;-74
2021/10/04 02:25:59;;;;;;;16.40;10.73;;;;;;;13.44;100.00;100561.25;5044045;28;20199;-74
2021/10/04 02:28:26;;;;;;;16.30;11.53;;;;;;;13.46;99.90;100563.81;5042612;28;20207;-74
2021/10/04 02:30:56;;;;;;;14.63;10.73;;;;;;;13.48;99.77;100563.75;5041883;28;20583;-75
2021/10/04 02:33:22;;;;;;;14.50;10.37;;;;;;;13.48;100.00;100572.47;5040987;28;20270;-73
2021/10/04 02:35:49;;;;;;;15.70;10.83;;;;;;;13.48;100.00;100580.31;5045113;28;20203;-74
2021/10/04 02:38:15;;;;;;;16.57;11.20;;;;;;;13.49;100.00;100573.31;5044186;28;20727;-74
2021/10/04 02:40:42;;;;;;;18.13;11.03;;;;;;;13.49;100.00;100573.31;5042251;28;20227;-76
2021/10/04 02:43:10;;;;;;;13.70;10.57;;;;;;;13.50;100.00;100575.88;5039302;28;20214;-74
2021/10/04 02:45:37;;;;;;;17.27;10.80;;;;;;;13.50;99.36;100575.03;5043909;28;20294;-74
2021/10/04 02:48:05;;;;;;;13.90;10.67;;;;;;;13.49;99.39;100568.94;5040628;28;20557;-74
2021/10/04 02:50:32;;;;;;;15.73;10.97;;;;;;;13.46;99.26;100571.66;5041957;28;20226;-74
2021/10/04 02:52:59;;;;;;;15.77;10.60;;;;;;;13.48;99.55;100567.22;5038597;28;20226;-74
2021/10/04 02:55:25;;;;;;;15.40;10.33;;;;;;;13.47;100.00;100570.75;5043714;28;20914;-76
2021/10/04 02:57:51;;;;;;;15.33;10.77;;;;;;;13.46;99.10;100581.31;5040673;28;20200;-74
2021/10/04 03:00:18;;;;;;;15.23;10.60;;;;;;;13.44;99.68;100581.34;5043775;28;20211;-75
2021/10/04 03:02:44;;;;;;;18.57;10.87;;;;;;;13.43;99.45;100585.72;5039312;28;20192;-76
2021/10/04 03:05:13;;;;;;;16.93;10.47;;;;;;;13.42;99.31;100589.28;5043207;28;20272;-75
2021/10/04 03:07:39;;;;;;;14.63;10.13;;;;;;;13.42;99.21;100575.31;5041218;28;20844;-75
2021/10/04 03:10:07;;;;;;;18.20;11.43;;;;;;;13.42;99.89;100576.19;5038667;28;20237;-76
2021/10/04 03:12:33;;;;;;;16.83;10.27;;;;;;;13.42;99.62;100581.41;5037864;28;20210;-74
2021/10/04 03:15:00;;;;;;;14.93;10.53;;;;;;;13.40;99.16;100600.69;5043245;28;20734;-75
2021/10/04 03:17:26;;;;;;;13.57;10.07;;;;;;;13.38;99.75;100599.91;5040448;28;20210;-75
2021/10/04 03:19:53;;;;;;;15.43;10.47;;;;;;;13.36;100.00;100606.97;5041922;28;20199;-76
2021/10/04 03:22:20;;;;;;;16.93;10.43;;;;;;;13.34;100.00;100609.66;5034063;28;20206;-74
2021/10/04 03:24:47;;;;;;;18.73;10.97;;;;;;;13.32;100.00;100613.25;5047390;28;20205;-76
2021/10/04 03:27:13;;;;;;;13.70;10.47;;;;;;;13.31;100.00;100611.50;5036463;28;20211;-73
2021/10/04 03:29:39;;;;;;;14.67;10.67;;;;;;;13.31;100.00;100608.88;5041257;28;20210;-75
2021/10/04 03:32:06;;;;;;;15.60;10.70;;;;;;;13.31;100.00;100614.13;5039001;28;20207;-75
2021/10/04 03:34:33;;;;;;;15.00;11.03;;;;;;;13.31;100.00;100619.34;5043090;28;20692;-76
2021/10/04 03:37:00;;;;;;;15.23;10.33;;;;;;;13.29;100.00;100618.56;5037821;28;20215;-74
2021/10/04 03:39:28;;;;;;;14.33;10.60;;;;;;;13.28;100.00;100620.34;5042444;28;20286;-74
2021/10/04 03:41:54;;;;;;;16.23;10.70;;;;;;;13.28;100.00;100622.97;5037881;28;20711;-75
2021/10/04 03:44:21;;;;;;;14.53;11.00;;;;;;;13.26;100.00;100623.00;5042469;28;20271;-74
2021/10/04 03:46:47;;;;;;;15.27;11.07;;;;;;;13.24;100.00;100618.72;5039988;28;20209;-74
2021/10/04 03:49:13;;;;;;;14.53;10.03;;;;;;;13.25;100.00;100625.69;5042859;28;20214;-76
2021/10/04 03:51:40;;;;;;;15.70;11.17;;;;;;;13.25;100.00;100618.66;5039219;28;20245;-74
2021/10/04 03:54:06;;;;;;;14.40;9.87;;;;;;;13.24;100.00;100624.84;5042463;28;20513;-76
2021/10/04 03:56:34;;;;;;;14.03;10.03;;;;;;;13.22;100.00;100637.09;5039970;28;20218;-76
2021/10/04 03:59:00;;;;;;;15.60;11.03;;;;;;;13.22;100.00;100642.34;5041950;28;20206;-76
2021/10/04 04:01:27;;;;;;;13.77;9.57;;;;;;;13.20;100.00;100646.78;5040171;28;20234;-73
2021/10/04 04:03:54;;;;;;;14.97;10.87;;;;;;;13.18;100.00;100651.22;5041587;28;20210;-75
2021/10/04 04:06:21;;;;;;;14.53;9.90;;;;;;;13.18;100.00;100653.84;5037783;28;20254;-74
2021/10/04 04:08:47;;;;;;;16.47;10.37;;;;;;;13.19;100.00;100665.16;5040820;28;20761;-74
2021/10/04 04:11:14;;;;;;;15.77;10.67;;;;;;;13.22;100.00;100657.19;5035350;28;20241;-74
2021/10/04 04:13:42;;;;;;;15.20;10.73;;;;;;;13.22;100.00;100671.13;5040868;28;20257;-75
2021/10/04 04:16:09;;;;;;;16.10;10.70;;;;;;;13.23;100.00;100679.88;5036972;28;20208;-75
2021/10/04 04:18:35;;;;;;;17.50;11.27;;;;;;;13.24;100.00;100668.47;5042822;28;20625;-74
2021/10/04 04:21:02;;;;;;;14.57;9.83;;;;;;;13.26;100.00;100670.13;5039174;28;20525;-73
2021/10/04 04:23:28;;;;;;;14.87;10.83;;;;;;;13.30;100.00;100668.25;5039631;28;20211;-75
2021/10/04 04:25:55;;;;;;;13.97;10.40;;;;;;;13.31;100.00;100666.47;5034534;28;20208;-73
2021/10/04 04:28:21;;;;;;;15.03;10.67;;;;;;;13.31;100.00;100677.84;5038022;28;20203;-74
2021/10/04 04:30:50;;;;;;;14.83;10.67;;;;;;;13.33;100.00;100685.63;5037734;28;20235;-75
2021/10/04 04:33:16;;;;;;;15.07;10.30;;;;;;;13.33;100.00;100683.91;5033866;28;20270;-75
2021/10/04 04:35:43;;;;;;;15.90;10.80;;;;;;;13.33;100.00;100693.50;5035030;28;20222;-74
2021/10/04 04:38:09;;;;;;;16.20;11.27;;;;;;;13.33;100.00;100702.22;5038834;28;21959;-75
2021/10/04 04:40:36;;;;;;;15.60;10.80;;;;;;;13.32;100.00;100710.97;5037428;28;20236;-73
2021/10/04 04:43:03;;;;;;;14.80;10.33;;;;;;;13.33;100.00;100706.59;5040554;28;20195;-75
2021/10/04 04:45:29;;;;;;;14.67;10.20;;;;;;;13.34;100.00;100708.31;5033602;28;20209;-74
2021/10/04 04:47:57;;;;;;;15.53;10.77;;;;;;;13.38;100.00;100710.75;5034355;28;20203;-74
2021/10/04 04:50:23;;;;;;;14.67;10.33;;;;;;;13.42;100.00;100714.97;5038022;28;20580;-74
2021/10/04 04:52:50;;;;;;;16.77;9.50;;;;;;;13.44;100.00;100728.88;5038586;28;20206;-73
2021/10/04 04:55:16;;;;;;;13.53;9.67;;;;;;;13.52;100.00;100730.34;5038611;28;20258;-75
2021/10/04 04:57:43;;;;;;;13.80;9.50;;;;;;;13.59;100.00;100737.06;5036535;28;20199;-74
2021/10/04 05:00:13;;;;;;;11.33;8.60;;;;;;;13.63;100.00;100726.44;5035302;28;20821;-73
2021/10/04 05:02:40;;;;;;;10.60;8.37;;;;;;;13.67;100.00;100732.41;5036650;28;20310;-75
2021/10/04 05:05:09;;;;;;;10.57;8.10;;;;;;;13.72;100.00;100738.34;5038000;28;20203;-75
2021/10/04 05:07:36;;;;;;;11.83;8.23;;;;;;;13.73;100.00;100741.81;5037484;28;20203;-72
2021/10/04 05:10:04;;;;;;;13.23;8.30;;;;;;;13.74;100.00;100740.91;5033989;28;20227;-75
2021/10/04 05:12:30;;;;;;;11.50;7.70;;;;;;;13.77;100.00;100739.03;5034071;28;20230;-74
2021/10/04 05:14:56;;;;;;;10.40;7.93;;;;;;;13.78;100.00;100735.47;5035359;28;20393;-75
2021/10/04 05:17:23;;;;;;;9.63;7.47;;;;;;;13.77;100.00;100741.63;5036350;28;20687;-74
2021/10/04 05:19:49;;;;;;;11.33;7.93;;;;;;;13.79;100.00;100739.81;5036989;28;20199;-73
2021/10/04 05:22:17;;;;;;;11.77;7.83;;;;;;;13.79;100.00;100745.06;5032773;28;20207;-76
2021/10/04 05:24:43;;;;;;;12.23;8.17;;;;;;;13.81;100.00;100766.81;5032591;28;20204;-75
2021/10/04 05:27:10;;;;;;;10.37;6.90;;;;;;;13.83;100.00;100767.59;5027328;28;20200;-75
2021/10/04 05:29:38;;;;;;;11.87;7.47;;;;;;;13.86;100.00;100771.00;5034870;28;20211;-73
2021/10/04 05:32:05;;;;;;;10.13;6.53;;;;;;;13.88;100.00;100763.94;5036716;28;20257;-75
2021/10/04 05:34:32;;;;;;;8.47;6.20;;;;;;;13.89;100.00;100760.41;5035983;28;20207;-74
2021/10/04 05:36:58;;;;;;;8.80;6.33;;;;;;;13.92;100.00;100757.69;5035951;28;20212;-75
2021/10/04 05:39:26;;;;;;;8.00;5.97;;;;;;;13.94;100.00;100753.25;5038962;28;20207;-76
2021/10/04 05:41:52;;;;;;;8.50;5.97;;;;;;;13.94;100.00;100768.97;5035304;28;20230;-73
2021/10/04 05:44:18;;;;;;;7.50;5.83;;;;;;;13.93;100.00;100780.34;5038220;28;20211;-74
2021/10/04 05:46:45;;;;;;;7.87;5.00;;;;;;;13.94;100.00;100795.19;5037500;28;20203;-74
2021/10/04 05:49:11;;;;;;;8.33;5.53;;;;;;;13.94;100.00;100793.41;5038981;28;20605;-75
2021/10/04 05:51:37;;;;;;;5.53;4.17;;;;;;;13.95;100.00;100786.41;5033508;28;20239;-73
2021/10/04 05:54:04;;;;;;;7.53;4.40;;;;;;;13.97;100.00;100788.06;5035479;28;20199;-75
2021/10/04 05:56:31;;;;;;;4.97;3.87;;;;;;;14.00;100.00;100784.44;5038027;28;20214;-76
2021/10/04 05:58:58;;;;;;;5.73;3.90;;;;;;;14.01;100.00;100781.78;5037269;28;20206;-74
2021/10/04 06:01:24;;;;;;;5.07;3.60;;;;;;;14.04;100.00;100782.59;5035752;28;20224;-75
2021/10/04 06:03:51;;;;;;;5.67;3.90;;;;;;;14.06;100.00;100775.53;5038714;28;20203;-75
2021/10/04 06:06:17;;;;;;;5.20;3.60;;;;;;;14.07;100.00;100774.59;5038640;28;20201;-74
2021/10/04 06:08:43;;;;;;;4.20;3.40;;;;;;;14.08;100.00;100769.28;5040679;28;20203;-76
2021/10/04 06:11:10;;;;;;;4.87;3.60;;;;;;;14.11;100.00;100776.19;5036378;28;20230;-76
2021/10/04 06:13:37;;;;;;;4.80;3.60;;;;;;;14.10;100.00;100785.81;5039353;28;20218;-74
2021/10/04 06:16:04;;;;;;;4.83;3.63;;;;;;;14.10;100.00;100796.28;5034425;28;20218;-74
2021/10/04 06:18:30;;;;;;;4.93;3.63;;;;;;;14.11;100.00;100790.16;5039879;28;20202;-74
2021/10/04 06:20:57;;;;;;;4.10;3.33;;;;;;;14.13;100.00;100793.56;5037336;28;20223;-75
2021/10/04 06:23:23;;;;;;;4.80;3.43;;;;;;;14.17;100.00;100802.16;5040087;28;20668;-74
2021/10/04 06:25:50;;;;;;;5.77;3.37;;;;;;;14.20;100.00;100807.31;5033913;28;20195;-74
2021/10/04 06:28:16;;;;;;;5.10;3.40;;;;;;;14.23;100.00;100807.19;5039070;28;20210;-76
2021/10/04 06:30:44;;;;;;;4.43;3.00;;;;;;;14.24;100.00;100806.25;5034585;28;20737;-75
2021/10/04 06:33:11;;;;;;;4.17;3.20;;;;;;;14.27;100.00;100816.63;5037259;28;20882;-74
2021/10/04 06:35:38;;;;;;;4.90;3.17;;;;;;;14.29;100.00;100829.69;5036781;28;20489;-74
2021/10/04 06:38:04;;;;;;;4.33;3.70;;;;;;;14.28;100.00;100823.59;5039146;28;20294;-74
2021/10/04 06:40:31;;;;;;;4.63;3.33;;;;;;;14.29;100.00;100820.06;5037058;28;20228;-73
2021/10/04 06:42:57;;;;;;;5.07;3.70;;;;;;;14.30;100.00;100819.16;5037885;28;20203;-73
2021/10/04 06:45:24;;;;;;;5.93;4.00;;;;;;;14.32;100.00;100832.22;5036178;28;20205;-76
2021/10/04 06:47:51;;;;;;;4.87;3.50;;;;;;;14.36;100.00;100841.66;5036908;28;20217;-75
2021/10/04 06:50:18;;;;;;;5.33;3.60;;;;;;;14.39;100.00;100859.91;5035996;28;20232;-76
2021/10/04 06:52:44;;;;;;;6.63;3.90;;;;;;;14.38;100.00;100866.06;5040092;28;20204;-76
2021/10/04 06:55:11;;;;;;;5.47;3.80;;;;;;;14.40;100.00;100864.22;5039790;28;20219;-75
2021/10/04 06:57:38;;;;;;;4.90;3.70;;;;;;;14.44;100.00;100863.22;5042498;28;20208;-75
2021/10/04 07:00:08;;;;;;;5.50;3.60;;;;;;;14.50;100.00;100859.50;5038760;28;20220;-76
2021/10/04 07:02:34;;;;;;;4.97;3.50;;;;;;;14.60;100.00;100870.50;5042310;28;20202;-76
2021/10/04 07:05:03;;;;;;;4.40;3.50;;;;;;;14.66;100.00;100862.41;5040130;28;20901;-76
2021/10/04 07:07:29;;;;;;;5.07;3.70;;;;;;;14.75;100.00;100862.03;5042866;28;20209;-76
2021/10/04 07:09:56;;;;;;;4.03;3.10;;;;;;;14.78;100.00;100864.53;5037444;28;20291;-76
2021/10/04 07:12:22;;;;;;;4.83;3.27;;;;;;;14.80;100.00;100875.84;5036485;28;20207;-76
2021/10/04 07:14:49;;;;;;;3.93;2.87;;;;;;;14.83;100.00;100875.72;5038655;28;20234;-77
2021/10/04 07:17:15;;;;;;;4.73;3.10;;;;;;;14.92;100.00;100880.59;5038789;28;20692;-76
2021/10/04 07:19:41;;;;;;;3.27;2.60;;;;;;;15.00;100.00;100875.03;5039510;28;20213;-76
2021/10/04 07:22:09;;;;;;;3.93;2.80;;;;;;;15.10;100.00;100871.09;5042397;28;20204;-76
2021/10/04 07:24:35;;;;;;;2.83;2.50;;;;;;;15.10;98.51;100875.50;5036127;28;20588;-76
2021/10/04 07:27:04;;;;;;;3.20;2.33;;;;;;;15.13;98.67;100885.91;5040562;28;20200;-77
2021/10/04 07:29:30;;;;;;;2.73;2.20;;;;;;;15.15;98.42;100895.41;5036913;28;20207;-76
2021/10/04 07:31:57;;;;;;;2.70;2.13;;;;;;;15.18;97.71;100910.19;5041512;28;20225;-76
2021/10/04 07:34:23;;;;;;;2.80;2.30;;;;;;;15.18;96.98;100904.06;5035258;28;20206;-76
2021/10/04 07:36:49;;;;;;;3.43;2.33;;;;;;;15.21;96.63;100906.59;5040614;28;20224;-78
2021/10/04 07:39:18;;;;;;;4.63;2.03;;;;;;;15.22;97.06;100910.94;5037971;28;20211;-77
2021/10/04 07:41:46;;;;;;;2.83;2.10;;;;;;;15.25;97.32;100916.03;5041478;28;20318;-76
2021/10/04 07:44:13;;;;;;;2.30;2.07;;;;;;;15.29;97.90;100913.22;5037671;28;20212;-77
2021/10/04 07:46:40;;;;;;;3.07;2.33;;;;;;;15.34;96.55;100911.28;5041355;28;20199;-76
2021/10/04 07:49:06;;;;;;;2.67;1.90;;;;;;;15.42;96.91;100916.19;5039059;28;20695;-76
2021/10/04 07:51:32;;;;;;;2.23;2.00;;;;;;;15.44;95.99;100908.25;5039040;28;20574;-76
2021/10/04 07:53:59;;;;;;;2.33;1.80;;;;;;;15.33;95.47;100909.56;5037807;28;20202;-77
2021/10/04 07:56:26;;;;;;;2.37;1.73;;;;;;;15.40;94.83;100907.53;5041829;28;20227;-76
2021/10/04 07:58:53;;;;;;;1.80;1.47;;;;;;;15.48;94.39;100921.22;5035487;28;20211;-76
2021/10/04 08:01:19;;;;;;;1.87;1.63;;;;;;;15.58;94.24;100923.44;5042423;28;20687;-76
2021/10/04 08:03:45;;;;;;;1.63;1.50;;;;;;;15.56;92.73;100920.03;5018814;28;21057;-77
2021/10/04 08:06:13;;;;;;;2.13;1.60;;;;;;;15.55;92.38;100932.31;5041421;28;20282;-76
2021/10/04 08:08:40;;;;;;;2.60;1.40;;;;;;;15.63;93.36;100938.09;5039947;28;20659;-76
2021/10/04 08:11:06;;;;;;;1.70;1.33;;;;;;;15.64;94.34;100921.41;5038538;28;20234;-76
2021/10/04 08:13:34;;;;;;;1.40;1.27;;;;;;;15.70;92.10;100936.91;5040627;28;20203;-76
2021/10/04 08:16:02;;;;;;;1.20;1.10;;;;;;;15.76;92.58;100938.47;5030061;28;20834;-77
2021/10/04 08:18:29;;;;;;;1.70;1.20;;;;;;;15.83;91.67;100939.03;5037667;28;20286;-77
2021/10/04 08:20:55;;;;;;;2.53;1.20;;;;;;;15.81;90.55;100947.03;5037185;28;20230;-77
2021/10/04 08:23:21;;;;;;;1.20;1.10;;;;;;;15.90;92.28;100951.88;5039666;28;20203;-76
2021/10/04 08:25:48;;;;;;;1.50;1.20;;;;;;;15.78;90.20;100952.41;5039859;28;20202;-77
2021/10/04 08:28:14;;;;;;;1.37;1.27;;;;;;;15.74;91.03;100955.19;5039850;28;20290;-76
2021/10/04 08:30:42;;;;;;;2.50;1.33;;;;;;;15.84;91.81;100953.91;5038595;28;20942;-76
2021/10/04 08:33:08;;;;;;;2.03;1.30;;;;;;;15.95;92.95;100956.91;5039860;28;20199;-77
2021/10/04 08:35:35;;;;;;;1.43;1.30;;;;;;;16.01;92.28;100967.19;5037585;28;20231;-76
2021/10/04 08:38:01;;;;;;;1.10;1.00;;;;;;;16.01;91.17;100976.88;5040202;28;20215;-77
2021/10/04 08:40:28;;;;;;;1.40;1.30;;;;;;;16.01;92.65;100979.50;5040680;28;20223;-76
2021/10/04 08:42:54;;;;;;;1.30;1.07;;;;;;;15.96;91.89;100982.31;5038672;28;20207;-77
2021/10/04 08:45:26;;;;;;;1.13;1.03;;;;;;;15.95;92.34;100993.72;5037364;28;20204;-76
2021/10/04 08:47:58;;;;;;;1.40;1.00;;;;;;;15.82;91.44;100988.16;5040183;28;20205;-77
2021/10/04 08:50:27;;;;;;;1.27;1.03;;;;;;;15.76;91.40;100993.69;5035520;28;21177;-76
2021/10/04 08:52:53;;;;;;;1.97;1.17;;;;;;;15.78;91.45;100993.63;5038445;28;20203;-76
2021/10/04 08:55:21;;;;;;;1.00;0.90;;;;;;;15.67;91.17;100981.75;5037868;28;20238;-76
2021/10/04 08:57:48;;;;;;;0.93;0.90;;;;;;;15.64;91.06;100991.53;5038671;28;20234;-77
2021/10/04 09:00:15;;;;;;;1.17;0.90;;;;;;;15.59;91.06;100988.25;5037649;28;20223;-77
2021/10/04 09:02:41;;;;;;;0.80;0.80;;;;;;;15.61;91.24;100983.78;5040957;28;20213;-77
2021/10/04 09:05:13;;;;;;;1.03;0.93;;;;;;;15.71;90.80;100987.72;5037940;28;20829;-76
2021/10/04 09:07:42;;;;;;;0.90;0.60;;;;;;;15.79;91.47;100997.94;5041487;28;20207;-76
2021/10/04 09:10:10;;;;;;;1.40;0.80;;;;;;;15.75;89.84;100991.97;5034628;28;20219;-77
2021/10/04 09:12:42;;;;;;;1.17;0.93;;;;;;;15.92;91.63;100990.38;5043996;28;20667;-76
2021/10/04 09:15:33;;;;;;;1.73;1.00;;;;;;;15.97;89.77;100991.91;5020242;28;20823;-76
2021/10/04 09:18:02;;;;;;;1.43;0.80;;;;;;;15.96;89.78;100995.47;5039016;28;20210;-77
2021/10/04 09:20:48;;;;;;;1.27;0.90;;;;;;;15.96;88.66;100995.47;5035952;28;20712;-76
2021/10/04 09:23:31;;;;;;;1.40;0.73;;;;;;;16.05;88.13;100992.44;5037166;28;20211;-77
2021/10/04 09:25:58;;;;;;;2.87;1.00;;;;;;;16.11;87.59;101004.44;5036454;28;20199;-76
2021/10/04 09:28:29;;;;;;;0.80;0.80;;;;;;;16.18;88.66;100994.53;5039524;28;20214;-77
2021/10/04 09:31:15;;;;;;;0.80;0.80;;;;;;;16.35;89.19;100985.91;5037491;28;20219;-76
2021/10/04 09:34:04;;;;;;;1.67;0.80;;;;;;;16.42;88.30;100987.34;5038768;28;20607;-77
2021/10/04 09:36:34;;;;;;;0.83;0.83;;;;;;;16.31;88.62;100985.19;5039643;28;20214;-76
2021/10/04 09:39:13;;;;;;;1.20;1.10;;;;;;;16.48;87.95;100984.44;5035497;28;20207;-76
2021/10/04 09:41:56;;;;;;;2.57;0.80;;;;;;;16.65;88.20;100981.88;5039776;28;20226;-77
2021/10/04 09:44:23;;;;;;;1.10;1.00;;;;;;;16.70;87.16;100976.41;5036885;28;20209;-77
2021/10/04 09:46:49;;;;;;;1.10;1.00;;;;;;;16.83;88.99;100972.31;5040848;28;20218;-77
2021/10/04 09:49:16;;;;;;;1.00;0.90;;;;;;;16.90;87.31;100972.84;5035411;28;20210;-76
2021/10/04 09:51:54;;;;;;;1.10;1.00;;;;;;;16.99;88.12;100963.66;5039653;28;20727;-77
2021/10/04 09:54:20;;;;;;;1.33;1.07;;;;;;;16.96;86.33;100971.75;5037441;28;20207;-77
2021/10/04 09:56:47;;;;;;;2.57;0.80;;;;;;;16.91;86.15;100976.38;5040413;28;20223;-77
2021/10/04 09:59:13;;;;;;;0.90;0.80;;;;;;;16.81;84.81;100989.06;5036436;28;20648;-77
2021/10/04 10:01:41;;;;;;;1.00;0.80;;;;;;;16.95;86.82;100980.56;5041537;28;20593;-77
2021/10/04 10:04:08;;;;;;;2.40;1.00;;;;;;;16.95;86.24;100999.84;5035900;28;20207;-77
2021/10/04 10:06:34;;;;;;;1.17;0.90;;;;;;;16.95;85.48;101012.16;5039577;28;20254;-77
2021/10/04 10:09:03;;;;;;;0.80;0.80;;;;;;;16.93;84.65;101017.50;5035489;28;20203;-77
2021/10/04 10:11:31;;;;;;;1.00;0.80;;;;;;;16.92;84.79;101025.47;5037668;28;20584;-77
2021/10/04 10:13:59;;;;;;;2.70;0.90;;;;;;;16.84;85.38;101018.78;5034367;28;20317;-77
2021/10/04 10:16:32;;;;;;;0.67;0.67;;;;;;;16.69;84.68;101023.84;5037709;28;20273;-76
2021/10/04 10:19:04;;;;;;;0.70;0.70;;;;;;;16.64;86.06;101024.09;5035285;28;20210;-77
2021/10/04 10:21:33;;;;;;;1.33;0.90;;;;;;;16.63;85.36;101028.47;5040657;28;20231;-77
2021/10/04 10:24:01;;;;;;;1.33;0.90;;;;;;;16.63;85.25;101025.84;5035504;28;20569;-77
2021/10/04 10:26:36;;;;;;;0.83;0.70;;;;;;;16.65;85.57;101016.09;5037958;28;20212;-77
2021/10/04 10:29:26;;;;;;;0.93;0.70;;;;;;;16.68;83.77;101009.00;5039790;28;20289;-77
2021/10/04 10:32:06;;;;;;;1.03;0.77;;;;;;;16.74;83.17;101019.25;5044228;28;20225;-77
2021/10/04 10:34:47;;;;;;;3.10;0.80;;;;;;;16.78;83.39;101020.78;5043907;28;20206;-76
2021/10/04 10:37:15;;;;;;;0.67;0.67;;;;;;;16.82;83.53;101023.22;5039088;28;20692;-76
2021/10/04 10:39:45;;;;;;;0.73;0.73;;;;;;;16.83;82.62;101024.97;5044728;28;20203;-77
2021/10/04 10:42:15;;;;;;;1.00;0.80;;;;;;;16.85;82.46;101024.91;5037782;28;20223;-76
2021/10/04 10:45:10;;;;;;;2.20;0.90;;;;;;;16.79;81.98;101023.34;5042254;28;20228;-77
2021/10/04 10:47:56;;;;;;;1.07;0.90;;;;;;;16.93;83.50;101017.50;5039301;28;20222;-77
2021/10/04 10:50:34;;;;;;;0.60;0.60;;;;;;;16.95;81.13;101027.97;5040584;28;20229;-76
2021/10/04 10:53:09;;;;;;;0.67;0.67;;;;;;;16.97;82.04;101023.47;5041042;28;20921;-78
2021/10/04 10:55:38;;;;;;;0.60;0.60;;;;;;;17.00;80.33;101020.69;5042089;28;20400;-77
2021/10/04 10:58:09;;;;;;;0.70;0.70;;;;;;;17.16;80.68;101018.19;5038927;28;20203;-77
2021/10/04 11:00:38;;;;;;;1.80;0.70;;;;;;;17.21;80.69;101027.59;5040071;28;20817;-76
2021/10/04 11:03:07;;;;;;;0.80;0.80;;;;;;;17.17;79.04;101033.09;5043459;28;20203;-77
2021/10/04 11:05:57;;;;;;;1.23;0.60;;;;;;;17.26;79.22;101034.44;5041985;28;20199;-76
2021/10/04 11:08:58;;;;;;;1.67;0.70;;;;;;;17.31;80.35;101035.06;5046310;28;20198;-77
2021/10/04 11:11:26;;;;;;;0.80;0.60;;;;;;;17.39;80.94;101039.03;5032495;28;20802;-77
2021/10/04 11:14:00;;;;;;;0.83;0.67;;;;;;;17.43;79.32;101052.94;5042553;28;20290;-77
2021/10/04 11:16:36;;;;;;;1.50;0.40;;;;;;;17.40;78.44;101046.00;5036883;28;20219;-77
2021/10/04 11:19:04;;;;;;;0.80;0.57;;;;;;;17.43;79.11;101050.31;5041586;28;20199;-77